Time;durP1;ratioP1;P1;durP2;ratioP2;P2;SDS_P1;SDS_P2;PMS_P1;PMS_P2;Temp;Humidity;BMP_temperature;BMP_pressure;BME280_temperature;BME280_humidity;BME280_pressure;Samples;Min_cycle;Max_cycle;Signal;HPM_P1;HPM_P2
2023/01/27 08:40:56;;;;;;;8.32;5.20;;;7.00;61.10;;;;;;6244838;23;20078;-76
2023/01/27 08:43:22;;;;;;;7.78;4.95;;;7.10;61.30;;;;;;6219659;23;20434;-76
2023/01/27 08:45:51;;;;;;;7.93;5.20;;;7.20;61.40;;;;;;6246959;23;19996;-75
2023/01/27 08:48:16;;;;;;;9.13;5.85;;;7.30;61.20;;;;;;6219425;23;20151;-76
2023/01/27 08:50:42;;;;;;;10.18;5.53;;;7.40;61.10;;;;;;6245833;23;20031;-75
2023/01/27 08:53:08;;;;;;;11.40;5.88;;;7.50;61.00;;;;;;6245478;23;20004;-75
2023/01/27 08:55:34;;;;;;;8.85;5.63;;;7.50;60.50;;;;;;6220016;23;20000;-75
2023/01/27 08:57:59;;;;;;;8.40;5.30;;;7.50;60.50;;;;;;6220009;23;20009;-76
2023/01/27 09:00:25;;;;;;;8.10;5.20;;;7.70;60.70;;;;;;6246958;23;20067;-76
2023/01/27 09:02:51;;;;;;;8.75;5.93;;;7.80;60.30;;;;;;6247012;23;20001;-76
2023/01/27 09:05:18;;;;;;;8.50;4.72;;;8.00;60.20;;;;;;6219681;23;20472;-75
2023/01/27 09:07:45;;;;;;;11.07;6.18;;;8.30;59.70;;;;;;6219821;23;20015;-75
2023/01/27 09:10:11;;;;;;;12.45;5.65;;;8.40;58.20;;;;;;6246807;23;20015;-75
2023/01/27 09:12:37;;;;;;;9.10;5.82;;;8.40;58.50;;;;;;6246348;23;20087;-75
2023/01/27 09:15:03;;;;;;;9.95;5.35;;;8.50;58.60;;;;;;6246126;23;20035;-75
2023/01/27 09:17:28;;;;;;;8.25;5.68;;;8.60;58.50;;;;;;6244628;23;20000;-75
2023/01/27 09:19:54;;;;;;;10.15;5.40;;;8.50;57.10;;;;;;6245663;23;20038;-76
2023/01/27 09:22:20;;;;;;;9.90;6.13;;;8.70;58.80;;;;;;6245873;23;20117;-76
2023/01/27 09:24:45;;;;;;;7.32;5.40;;;8.80;57.10;;;;;;6245462;23;20422;-75
2023/01/27 09:27:11;;;;;;;11.45;5.75;;;8.90;57.60;;;;;;6244124;23;20004;-75
2023/01/27 09:29:38;;;;;;;9.23;5.03;;;9.10;56.50;;;;;;6244280;23;20008;-75
2023/01/27 09:32:04;;;;;;;7.05;4.72;;;9.20;57.80;;;;;;6245328;23;20010;-75
2023/01/27 09:34:30;;;;;;;10.88;5.00;;;9.30;57.70;;;;;;6218627;23;20004;-75
2023/01/27 09:37:01;;;;;;;6.78;4.32;;;9.60;57.00;;;;;;6244296;23;20299;-75
2023/01/27 09:39:29;;;;;;;7.15;4.90;;;9.80;57.70;;;;;;6245383;22;20016;-83
2023/01/27 09:41:58;;;;;;;6.35;4.43;;;9.90;54.20;;;;;;6218194;23;20012;-75
2023/01/27 09:44:30;;;;;;;5.88;3.60;;;10.00;55.10;;;;;;6245917;23;20032;-76
2023/01/27 09:47:04;;;;;;;6.07;3.50;;;9.90;52.00;;;;;;6245624;23;20011;-76
2023/01/27 09:49:57;;;;;;;4.45;3.22;;;10.00;53.90;;;;;;6245497;23;20004;-76
2023/01/27 09:53:07;;;;;;;5.32;3.13;;;10.00;52.20;;;;;;6245794;23;19997;-76
2023/01/27 09:56:00;;;;;;;6.90;3.13;;;10.20;52.60;;;;;;6245441;23;20058;-77
2023/01/27 09:58:47;;;;;;;4.57;3.28;;;10.20;51.00;;;;;;6245545;23;20035;-76
2023/01/27 10:01:40;;;;;;;5.13;3.45;;;10.30;50.20;;;;;;6245792;23;20007;-76
2023/01/27 10:04:28;;;;;;;5.25;3.30;;;10.50;51.60;;;;;;6245548;23;20031;-76
2023/01/27 10:07:02;;;;;;;5.18;3.80;;;10.60;50.80;;;;;;6245574;23;20034;-76
2023/01/27 10:09:34;;;;;;;6.38;3.55;;;10.70;49.90;;;;;;6218455;23;20008;-77
2023/01/27 10:12:09;;;;;;;6.50;3.80;;;10.80;49.50;;;;;;6244643;23;20080;-76
2023/01/27 10:14:50;;;;;;;4.30;2.75;;;10.70;49.00;;;;;;6245090;23;19996;-76
2023/01/27 10:17:34;;;;;;;4.85;3.40;;;10.80;50.50;;;;;;6244834;23;20000;-76
2023/01/27 10:20:08;;;;;;;5.22;3.53;;;11.00;49.50;;;;;;6245157;23;20000;-76
2023/01/27 10:23:02;;;;;;;6.82;4.55;;;11.10;49.50;;;;;;6244883;23;20008;-76
2023/01/27 10:25:48;;;;;;;4.03;3.13;;;11.00;47.80;;;;;;6245017;23;20004;-77
2023/01/27 10:28:20;;;;;;;3.55;2.45;;;11.00;49.10;;;;;;6244721;23;20483;-77
2023/01/27 10:31:12;;;;;;;10.00;3.30;;;11.10;49.20;;;;;;6245314;23;19996;-78
2023/01/27 10:33:47;;;;;;;4.50;3.00;;;11.00;48.20;;;;;;6203020;23;20520;-77
2023/01/27 10:36:31;;;;;;;6.38;3.55;;;11.10;47.30;;;;;;6245435;23;20405;-78
2023/01/27 10:39:12;;;;;;;4.97;2.92;;;11.20;47.00;;;;;;6245314;23;20434;-77
2023/01/27 10:41:43;;;;;;;3.45;2.72;;;11.40;48.40;;;;;;6245400;23;20008;-77
2023/01/27 10:44:30;;;;;;;4.53;2.83;;;11.60;48.20;;;;;;6244881;23;20008;-77
2023/01/27 10:47:22;;;;;;;4.78;2.97;;;11.70;48.10;;;;;;6245159;23;20045;-77
2023/01/27 10:49:57;;;;;;;3.28;2.63;;;11.90;47.60;;;;;;6245186;23;20063;-77
2023/01/27 10:52:30;;;;;;;3.88;2.80;;;12.10;47.70;;;;;;6245290;23;20000;-77
2023/01/27 10:55:23;;;;;;;3.72;2.55;;;12.20;47.50;;;;;;6245098;23;19996;-78
2023/01/27 10:58:02;;;;;;;6.00;2.72;;;12.40;47.70;;;;;;6218297;23;20376;-77
2023/01/27 11:00:50;;;;;;;3.60;2.45;;;12.40;46.50;;;;;;6245414;23;20007;-77
2023/01/27 11:03:29;;;;;;;3.50;2.70;;;12.40;46.60;;;;;;6243993;23;20000;-78
2023/01/27 11:06:07;;;;;;;4.05;3.00;;;12.20;45.20;;;;;;6244910;23;20058;-78
2023/01/27 11:08:35;;;;;;;6.10;3.22;;;12.30;46.10;;;;;;6245150;23;20008;-78
2023/01/27 11:14:03;;;;;;;4.15;2.95;;;12.30;47.10;;;;;;6245047;23;20011;-78
2023/01/27 11:16:38;;;;;;;5.50;3.25;;;12.50;47.10;;;;;;6244771;23;20378;-79
2023/01/27 11:19:40;;;;;;;5.63;3.08;;;12.60;47.10;;;;;;6217798;23;20004;-79
2023/01/27 11:22:25;;;;;;;6.53;2.83;;;12.80;45.60;;;;;;6180436;23;20015;-78
2023/01/27 11:25:16;;;;;;;5.82;2.65;;;13.00;47.00;;;;;;6244647;23;20083;-78
2023/01/27 11:27:50;;;;;;;4.70;2.83;;;13.20;46.40;;;;;;6218145;23;20091;-78
2023/01/27 11:35:31;;;;;;;8.18;2.70;;;13.50;46.00;;;;;;6246008;23;20354;-87
2023/01/27 11:37:57;;;;;;;5.80;3.70;;;13.70;46.10;;;;;;6219579;23;20005;-87
2023/01/27 11:40:33;;;;;;;4.18;2.85;;;13.70;44.40;;;;;;6218648;23;20012;-88
2023/01/27 11:42:59;;;;;;;5.45;3.00;;;13.80;45.40;;;;;;6245909;23;20007;-87
2023/01/27 11:45:29;;;;;;;4.20;3.08;;;14.00;45.20;;;;;;6219122;23;20015;-87
2023/01/27 11:47:58;;;;;;;3.92;3.00;;;14.30;45.20;;;;;;6245391;23;20366;-87
2023/01/27 11:50:31;;;;;;;4.65;2.88;;;14.60;42.90;;;;;;6218596;23;20008;-88
2023/01/27 11:53:15;;;;;;;4.50;3.00;;;14.70;44.00;;;;;;6245664;23;20071;-84
2023/01/27 11:55:48;;;;;;;4.10;3.20;;;15.10;42.50;;;;;;6247229;23;19996;-86
2023/01/27 11:58:13;;;;;;;4.05;3.00;;;15.70;41.10;;;;;;6218759;23;20004;-86
2023/01/27 12:01:00;;;;;;;4.10;2.72;;;16.70;40.30;;;;;;6246938;23;20000;-85
2023/01/27 12:03:57;;;;;;;3.63;2.88;;;17.80;36.90;;;;;;6220218;23;20453;-86
2023/01/27 12:07:07;;;;;;;3.85;2.63;;;18.90;37.30;;;;;;6247370;23;20071;-89
2023/01/27 12:09:37;;;;;;;2.47;2.20;;;19.60;33.50;;;;;;6159900;23;20031;-88
2023/01/27 12:12:24;;;;;;;2.72;2.38;;;20.30;33.60;;;;;;6220119;23;20008;-89
2023/01/27 12:14:59;;;;;;;2.30;2.10;;;21.00;31.10;;;;;;6219445;23;20350;-89
2023/01/27 12:17:37;;;;;;;3.08;2.00;;;21.40;30.80;;;;;;6247011;23;20000;-89
2023/01/27 12:20:27;;;;;;;2.47;1.90;;;21.70;30.00;;;;;;6247603;23;20043;-89
2023/01/27 12:22:58;;;;;;;2.60;2.30;;;22.30;29.30;;;;;;6219247;23;20450;-89
2023/01/27 12:25:43;;;;;;;4.78;2.13;;;22.60;29.00;;;;;;6219758;23;20048;-88
2023/01/27 12:28:38;;;;;;;2.45;2.17;;;23.00;28.90;;;;;;6247430;23;19996;-87
2023/01/27 12:31:23;;;;;;;2.17;1.98;;;23.00;27.90;;;;;;6220613;23;20008;-87
2023/01/27 12:34:12;;;;;;;2.45;2.05;;;23.10;27.80;;;;;;6219157;23;20016;-87
2023/01/27 12:36:43;;;;;;;3.45;2.35;;;23.20;27.70;;;;;;6247075;23;20007;-87
2023/01/27 12:39:34;;;;;;;3.60;2.63;;;23.00;27.70;;;;;;6219899;23;20087;-84
2023/01/27 12:41:59;;;;;;;2.80;2.38;;;23.00;26.80;;;;;;6244460;23;20075;-82
2023/01/27 12:44:27;;;;;;;6.35;1.80;;;23.00;27.50;;;;;;6245929;23;20092;-82
2023/01/27 12:47:17;;;;;;;2.47;2.00;;;22.90;27.00;;;;;;6242456;23;20007;-82
2023/01/27 12:49:43;;;;;;;1.80;1.63;;;22.80;27.40;;;;;;6244493;23;20030;-82
2023/01/27 12:52:18;;;;;;;2.30;1.90;;;22.50;27.00;;;;;;6245061;23;20070;-81
2023/01/27 12:54:44;;;;;;;5.00;1.95;;;21.70;26.30;;;;;;6244426;23;20005;-82
2023/01/27 12:57:19;;;;;;;2.53;1.98;;;21.30;27.20;;;;;;6246015;23;20008;-85
2023/01/27 12:59:51;;;;;;;2.78;2.20;;;20.90;28.40;;;;;;6241880;23;20000;-86
2023/01/27 13:02:22;;;;;;;2.85;2.33;;;20.80;28.50;;;;;;6243791;23;20294;-84
2023/01/27 13:04:54;;;;;;;2.80;2.35;;;20.80;28.50;;;;;;6244518;23;20066;-86
2023/01/27 13:07:28;;;;;;;3.58;2.33;;;20.70;28.60;;;;;;6226129;23;20066;-88
2023/01/27 13:09:57;;;;;;;2.60;2.05;;;20.70;28.70;;;;;;6230932;23;20008;-83
2023/01/27 13:12:29;;;;;;;3.15;2.22;;;20.90;28.60;;;;;;6208415;23;20452;-88
2023/01/27 13:14:56;;;;;;;3.47;2.40;;;21.00;27.90;;;;;;6217822;23;20091;-87
2023/01/27 13:17:34;;;;;;;3.72;2.35;;;21.10;28.40;;;;;;6241988;23;20071;-87
2023/01/27 13:20:07;;;;;;;2.40;2.20;;;21.20;28.00;;;;;;6219008;23;20035;-87
2023/01/27 13:22:46;;;;;;;2.85;2.47;;;21.30;28.40;;;;;;6246416;23;20027;-89
2023/01/27 13:25:31;;;;;;;2.72;2.10;;;21.40;27.70;;;;;;6219474;23;20015;-90
2023/01/27 13:27:59;;;;;;;2.53;1.98;;;21.40;27.50;;;;;;6218687;23;20040;-89
2023/01/27 13:30:32;;;;;;;3.75;2.72;;;21.30;28.00;;;;;;6218895;23;20013;-89
2023/01/27 13:33:07;;;;;;;3.25;2.50;;;20.90;28.10;;;;;;6245866;23;20115;-90
2023/01/27 13:35:56;;;;;;;3.50;2.53;;;20.30;28.30;;;;;;6215138;23;20013;-82
2023/01/27 13:38:29;;;;;;;3.80;2.85;;;19.40;29.30;;;;;;6214113;23;20007;-82
2023/01/27 13:40:55;;;;;;;4.90;3.35;;;18.60;29.50;;;;;;6188262;23;20035;-82
2023/01/27 13:43:33;;;;;;;3.35;2.72;;;17.80;30.60;;;;;;6213846;23;20007;-82
2023/01/27 13:46:05;;;;;;;2.85;2.40;;;17.20;31.50;;;;;;6215131;23;20543;-82
2023/01/27 13:48:36;;;;;;;3.65;2.80;;;16.40;32.20;;;;;;6187457;23;20008;-83
2023/01/27 13:51:14;;;;;;;5.55;2.92;;;15.90;33.40;;;;;;6215493;23;20024;-82
2023/01/27 13:53:40;;;;;;;3.15;2.38;;;15.30;34.30;;;;;;6188185;23;20134;-81
2023/01/27 13:56:15;;;;;;;6.65;2.17;;;15.00;35.30;;;;;;6214723;23;20374;-81
2023/01/27 13:58:49;;;;;;;3.72;2.67;;;14.40;35.90;;;;;;6188147;23;20013;-81
2023/01/27 14:01:53;;;;;;;3.63;2.83;;;14.30;36.90;;;;;;6187878;23;20092;-81
2023/01/27 14:05:17;;;;;;;3.25;2.35;;;14.20;37.10;;;;;;6213324;23;20004;-88
2023/01/27 14:07:57;;;;;;;3.20;2.00;;;14.00;37.80;;;;;;6186592;23;20004;-85
2023/01/27 14:10:53;;;;;;;6.05;2.58;;;13.80;38.50;;;;;;6214557;23;20087;-90
2023/01/27 14:13:47;;;;;;;4.63;2.30;;;13.60;38.70;;;;;;6188841;23;20063;-90
2023/01/27 14:17:03;;;;;;;3.40;2.63;;;13.40;39.10;;;;;;6189013;23;20469;-90
2023/01/27 14:19:56;;;;;;;3.00;1.95;;;13.30;39.30;;;;;;6097814;23;20021;-87
2023/01/27 14:22:36;;;;;;;3.78;2.53;;;13.10;39.70;;;;;;6211191;23;20092;-86
2023/01/27 14:25:34;;;;;;;4.28;3.05;;;12.90;40.00;;;;;;6213485;23;20001;-84
2023/01/27 14:28:17;;;;;;;4.07;2.67;;;12.70;41.40;;;;;;6211833;23;20012;-85
2023/01/27 14:30:49;;;;;;;3.13;2.25;;;12.60;41.40;;;;;;6214817;23;20434;-85
2023/01/27 14:33:33;;;;;;;3.58;2.45;;;12.50;41.90;;;;;;6215979;22;20949;-85
2023/01/27 14:36:23;;;;;;;3.00;2.10;;;12.40;42.20;;;;;;6217692;23;20011;-85
2023/01/27 14:39:05;;;;;;;2.53;1.97;;;12.40;42.50;;;;;;6217858;23;20008;-85
2023/01/27 14:41:37;;;;;;;3.25;2.10;;;12.30;42.40;;;;;;6218032;23;20008;-85
2023/01/27 14:44:28;;;;;;;2.65;2.00;;;12.20;42.10;;;;;;6244724;23;20047;-85
2023/01/27 14:47:18;;;;;;;2.65;1.70;;;12.20;42.60;;;;;;6217400;23;20061;-84
2023/01/27 14:50:01;;;;;;;4.30;1.80;;;12.10;42.80;;;;;;6244909;23;20004;-84
2023/01/27 14:52:59;;;;;;;3.28;2.15;;;12.00;42.60;;;;;;6218817;23;20004;-86
2023/01/27 14:56:12;;;;;;;3.58;2.33;;;11.90;42.60;;;;;;6245245;23;20079;-89
2023/01/27 14:58:46;;;;;;;5.82;2.25;;;11.90;42.30;;;;;;6130942;23;20039;-89
2023/01/27 15:01:32;;;;;;;6.88;2.22;;;11.80;42.80;;;;;;6244967;23;20445;-89
2023/01/27 15:04:04;;;;;;;3.67;2.20;;;11.70;43.30;;;;;;6245223;23;20007;-90
2023/01/27 15:06:53;;;;;;;3.63;2.28;;;11.70;43.80;;;;;;6245322;23;20558;-90
2023/01/27 15:09:25;;;;;;;4.97;2.28;;;11.60;44.00;;;;;;6218390;23;20414;-90
2023/01/27 15:12:05;;;;;;;5.22;2.40;;;11.50;44.00;;;;;;6218554;23;20016;-90
2023/01/27 15:14:37;;;;;;;;;;;11.50;44.60;;;;;;6246499;23;20000;-91
2023/01/27 15:17:40;;;;;;;3.40;1.88;;;11.40;45.20;;;;;;6218767;23;19910;-90
2023/01/27 15:20:31;;;;;;;5.32;2.22;;;11.30;45.70;;;;;;6217560;23;20102;-89
2023/01/27 15:23:23;;;;;;;4.53;2.10;;;11.20;45.80;;;;;;6245169;23;20077;-89
2023/01/27 15:26:00;;;;;;;4.95;1.80;;;11.20;46.00;;;;;;6218581;23;20070;-90
2023/01/27 15:28:31;;;;;;;5.65;2.00;;;11.10;46.90;;;;;;6218418;23;20426;-86
2023/01/27 15:31:15;;;;;;;3.00;2.05;;;11.00;46.70;;;;;;6219788;23;20081;-87
2023/01/27 15:33:47;;;;;;;4.40;2.13;;;10.90;46.90;;;;;;6219842;23;20020;-88
2023/01/27 15:36:28;;;;;;;5.25;1.90;;;10.90;47.10;;;;;;6247782;23;20322;-87
2023/01/27 15:39:09;;;;;;;3.38;1.80;;;10.90;46.90;;;;;;6247460;23;20430;-86
2023/01/27 15:41:35;;;;;;;6.40;1.98;;;10.90;47.70;;;;;;6221002;23;20102;-86
2023/01/27 15:44:13;;;;;;;5.22;1.92;;;10.90;47.50;;;;;;6220254;23;20034;-86
2023/01/27 15:46:50;;;;;;;2.83;1.60;;;10.90;47.10;;;;;;6246941;23;20007;-86
2023/01/27 15:49:28;;;;;;;6.97;1.95;;;10.90;47.30;;;;;;6247121;23;20083;-85
2023/01/27 15:51:56;;;;;;;5.65;1.70;;;10.80;47.50;;;;;;6220355;23;20011;-84
2023/01/27 15:54:30;;;;;;;4.18;2.20;;;10.80;47.80;;;;;;6220317;23;20012;-84
2023/01/27 15:57:02;;;;;;;7.15;2.28;;;10.80;48.20;;;;;;6246631;23;20464;-83
2023/01/27 15:59:31;;;;;;;4.60;2.08;;;10.80;48.70;;;;;;6218955;23;20008;-83
2023/01/27 16:02:14;;;;;;;6.60;1.80;;;10.80;48.80;;;;;;6247214;23;20071;-85
2023/01/27 16:04:40;;;;;;;3.10;1.55;;;10.80;48.80;;;;;;6221093;23;20058;-86
2023/01/27 16:07:29;;;;;;;5.70;1.80;;;10.70;48.50;;;;;;6247265;23;20000;-85
2023/01/27 16:09:57;;;;;;;2.78;1.73;;;10.70;48.70;;;;;;6246058;23;20000;-83
2023/01/27 16:12:23;;;;;;;4.65;2.00;;;10.70;49.20;;;;;;6247106;23;20036;-83
2023/01/27 16:15:18;;;;;;;3.40;1.77;;;10.60;49.80;;;;;;6220450;23;20011;-83
2023/01/27 16:17:57;;;;;;;8.02;3.40;;;10.50;49.80;;;;;;6229488;23;20377;-84
2023/01/27 16:20:29;;;;;;;4.55;1.50;;;10.40;49.70;;;;;;6247470;23;20364;-84
2023/01/27 16:23:07;;;;;;;9.05;2.22;;;10.30;50.00;;;;;;6220698;23;20012;-84
2023/01/27 16:25:43;;;;;;;2.92;1.90;;;10.30;50.30;;;;;;6220286;23;20015;-86
2023/01/27 16:28:17;;;;;;;5.32;2.10;;;10.30;50.30;;;;;;6247292;23;20028;-85
2023/01/27 16:30:59;;;;;;;9.00;2.85;;;10.20;50.20;;;;;;6219741;23;20012;-84
2023/01/27 16:33:32;;;;;;;6.05;1.90;;;10.10;50.40;;;;;;6220142;23;20008;-84
2023/01/27 16:36:07;;;;;;;4.18;2.00;;;10.10;50.40;;;;;;6247214;23;20000;-84
2023/01/27 16:38:40;;;;;;;7.10;2.67;;;10.10;50.90;;;;;;6220239;23;20018;-84
2023/01/27 16:41:15;;;;;;;5.38;2.00;;;10.00;50.80;;;;;;6219342;23;20055;-82
2023/01/27 16:43:59;;;;;;;4.32;2.17;;;10.00;50.90;;;;;;6247298;23;20028;-84
2023/01/27 16:46:34;;;;;;;6.32;2.22;;;10.00;51.20;;;;;;6246993;23;20016;-83
2023/01/27 16:49:19;;;;;;;4.80;2.22;;;10.00;51.20;;;;;;6246470;23;20005;-82
2023/01/27 16:51:52;;;;;;;4.68;1.95;;;9.90;51.20;;;;;;6219759;23;20008;-83
2023/01/27 16:54:36;;;;;;;6.47;1.95;;;9.90;51.20;;;;;;6219998;23;20009;-83
2023/01/27 16:57:03;;;;;;;3.85;2.03;;;9.90;51.00;;;;;;6245716;23;20492;-84
2023/01/27 16:59:33;;;;;;;6.93;2.05;;;9.90;51.00;;;;;;6218608;23;20431;-84
2023/01/27 17:02:17;;;;;;;4.13;2.25;;;9.90;51.00;;;;;;6246216;23;20004;-86
2023/01/27 17:04:50;;;;;;;4.72;2.08;;;9.90;51.50;;;;;;6244919;23;20000;-82
2023/01/27 17:07:16;;;;;;;5.95;2.30;;;9.90;51.50;;;;;;6246408;23;20000;-83
2023/01/27 17:10:01;;;;;;;5.10;2.53;;;9.90;51.60;;;;;;6244995;23;20004;-82
2023/01/27 17:12:31;;;;;;;4.82;2.38;;;9.80;51.70;;;;;;6245969;23;20000;-82
2023/01/27 17:14:59;;;;;;;4.88;2.70;;;9.80;51.70;;;;;;6217892;23;20018;-88
2023/01/27 17:17:28;;;;;;;6.25;1.92;;;9.70;51.90;;;;;;6243637;23;20016;-88
2023/01/27 17:20:05;;;;;;;4.43;2.65;;;9.70;52.30;;;;;;6243103;23;20012;-88
2023/01/27 17:22:41;;;;;;;6.93;3.00;;;9.60;52.40;;;;;;6245175;23;20015;-87
2023/01/27 17:25:23;;;;;;;5.38;2.60;;;9.60;52.40;;;;;;6244853;23;20008;-87
2023/01/27 17:27:48;;;;;;;7.65;2.95;;;9.60;52.60;;;;;;6244552;23;20038;-86
2023/01/27 17:30:26;;;;;;;5.55;2.88;;;9.60;52.50;;;;;;6214345;23;20016;-88
2023/01/27 17:33:03;;;;;;;5.25;3.15;;;9.50;52.60;;;;;;6216342;23;20004;-87
2023/01/27 17:35:32;;;;;;;6.40;3.47;;;9.50;52.90;;;;;;6243992;22;20074;-88
2023/01/27 17:38:18;;;;;;;4.35;2.88;;;9.40;53.00;;;;;;6217999;23;20279;-88
2023/01/27 17:40:47;;;;;;;7.43;3.17;;;9.40;53.20;;;;;;6243314;23;20091;-89
2023/01/27 17:43:32;;;;;;;5.47;2.63;;;9.40;53.20;;;;;;6243781;23;20517;-88
2023/01/27 17:46:04;;;;;;;5.00;3.15;;;9.40;53.30;;;;;;6244391;23;20430;-88
2023/01/27 17:48:39;;;;;;;5.70;2.70;;;9.40;53.40;;;;;;6243545;23;20004;-88
2023/01/27 17:51:06;;;;;;;4.88;3.35;;;9.40;53.20;;;;;;6244986;23;20004;-89
2023/01/27 17:53:40;;;;;;;4.60;2.90;;;9.30;53.30;;;;;;6218499;23;20517;-88
2023/01/27 17:56:21;;;;;;;9.82;3.42;;;9.30;53.50;;;;;;6204056;23;20006;-88
2023/01/27 17:58:51;;;;;;;7.10;3.55;;;9.30;53.50;;;;;;6217538;23;20012;-88
2023/01/27 18:01:17;;;;;;;7.35;3.90;;;9.20;53.80;;;;;;6245649;23;20032;-83
2023/01/27 18:03:44;;;;;;;9.57;3.83;;;9.20;54.20;;;;;;6244349;23;20057;-81
2023/01/27 18:06:13;;;;;;;6.20;3.50;;;9.20;54.40;;;;;;6243792;23;20011;-82
2023/01/27 18:08:49;;;;;;;4.55;3.17;;;9.20;54.40;;;;;;6217556;23;20096;-82
2023/01/27 18:11:24;;;;;;;5.47;3.33;;;9.20;54.60;;;;;;6217152;23;20004;-83
2023/01/27 18:13:54;;;;;;;5.93;3.25;;;9.30;54.70;;;;;;6217535;23;20008;-83
2023/01/27 18:16:22;;;;;;;6.88;3.22;;;9.20;54.50;;;;;;6217410;23;20004;-83
2023/01/27 18:18:49;;;;;;;4.80;3.17;;;9.20;54.60;;;;;;6216368;23;20023;-82
2023/01/27 18:21:16;;;;;;;4.15;2.92;;;9.20;54.50;;;;;;6216255;23;20016;-82
2023/01/27 18:23:47;;;;;;;6.72;3.20;;;9.10;54.10;;;;;;6216694;23;20703;-82
2023/01/27 18:26:16;;;;;;;5.35;3.40;;;9.20;54.60;;;;;;6217141;23;20015;-81
2023/01/27 18:28:44;;;;;;;4.35;3.03;;;9.20;54.20;;;;;;6244184;23;20010;-82
2023/01/27 18:31:33;;;;;;;5.75;3.20;;;9.20;54.40;;;;;;6216643;23;20012;-83
2023/01/27 18:34:31;;;;;;;4.90;3.38;;;9.10;53.80;;;;;;6244170;22;20012;-80
2023/01/27 18:37:20;;;;;;;5.15;3.20;;;9.10;53.90;;;;;;6241584;23;20004;-80
2023/01/27 18:39:47;;;;;;;6.30;3.45;;;9.10;54.40;;;;;;6215380;23;20047;-80
2023/01/27 18:42:17;;;;;;;4.28;3.08;;;9.10;54.60;;;;;;6214138;23;20034;-82
2023/01/27 18:44:43;;;;;;;4.57;3.42;;;9.00;54.20;;;;;;6240738;23;20083;-83
2023/01/27 18:47:20;;;;;;;8.40;3.90;;;9.00;54.80;;;;;;6213541;23;20050;-81
2023/01/27 18:52:51;;;;;;;8.35;3.40;;;9.00;54.30;;;;;;6242206;22;20051;-82
2023/01/27 18:55:25;;;;;;;6.28;3.10;;;9.00;54.10;;;;;;6244544;23;20075;-82
2023/01/27 18:57:57;;;;;;;6.35;3.55;;;9.00;54.30;;;;;;6244164;23;20031;-83
2023/01/27 19:00:36;;;;;;;8.30;3.15;;;9.00;54.80;;;;;;6244093;23;20004;-83
2023/01/27 19:03:03;;;;;;;6.85;3.88;;;9.00;54.80;;;;;;6242395;23;20441;-82
2023/01/27 19:05:34;;;;;;;4.38;2.58;;;8.90;54.70;;;;;;6243123;23;20011;-83
2023/01/27 19:08:01;;;;;;;6.13;3.35;;;9.00;54.80;;;;;;6241958;23;20441;-83
2023/01/27 19:10:30;;;;;;;10.27;4.10;;;8.90;54.80;;;;;;6242919;23;20046;-83
2023/01/27 19:12:57;;;;;;;6.47;3.30;;;8.90;55.00;;;;;;6245069;23;20000;-83
2023/01/27 19:15:26;;;;;;;6.45;3.28;;;8.90;54.60;;;;;;6245054;23;20054;-83
2023/01/27 19:17:54;;;;;;;5.60;3.28;;;8.90;55.20;;;;;;6242155;23;20310;-82
2023/01/27 19:20:22;;;;;;;6.35;4.05;;;8.80;54.50;;;;;;6243014;23;20099;-82
2023/01/27 19:22:50;;;;;;;4.65;3.03;;;8.80;54.40;;;;;;6244111;23;20004;-83
2023/01/27 19:25:16;;;;;;;5.43;3.22;;;8.80;54.80;;;;;;6243733;23;20433;-83
2023/01/27 19:27:46;;;;;;;6.28;3.65;;;8.70;54.30;;;;;;6242915;23;20000;-82
2023/01/27 19:30:22;;;;;;;5.07;3.20;;;8.80;54.80;;;;;;6244213;23;20087;-82
2023/01/27 19:32:47;;;;;;;6.40;3.15;;;8.70;54.70;;;;;;6244191;23;20012;-82
2023/01/27 19:35:14;;;;;;;7.22;3.42;;;;;;;;;;6244657;23;20058;-82
2023/01/27 19:37:40;;;;;;;5.10;3.03;;;8.70;54.50;;;;;;6242860;23;20005;-82
2023/01/27 19:40:16;;;;;;;5.70;3.42;;;8.60;56.80;;;;;;6217823;23;20035;-81
2023/01/27 19:42:42;;;;;;;3.53;2.70;;;8.50;55.10;;;;;;6239422;23;20003;-80
2023/01/27 19:45:12;;;;;;;5.65;3.00;;;8.60;54.60;;;;;;6241348;23;20016;-80
2023/01/27 19:47:37;;;;;;;6.68;2.97;;;8.60;54.40;;;;;;6212405;23;20345;-81
2023/01/27 19:50:04;;;;;;;5.57;3.60;;;8.60;54.30;;;;;;6240733;23;20011;-79
2023/01/27 19:52:30;;;;;;;4.72;2.88;;;8.50;54.60;;;;;;6241722;23;20016;-79
2023/01/27 19:54:55;;;;;;;5.20;3.50;;;8.60;54.70;;;;;;6239559;23;20019;-79
2023/01/27 19:57:21;;;;;;;4.18;2.75;;;8.50;54.60;;;;;;6241275;23;20385;-77
2023/01/27 19:59:47;;;;;;;6.35;3.08;;;8.50;55.60;;;;;;6241884;23;20208;-77
2023/01/27 20:02:13;;;;;;;4.47;3.40;;;;;;;;;;6240745;23;20428;-77
2023/01/27 20:04:39;;;;;;;4.53;3.05;;;8.50;55.40;;;;;;6214568;23;20023;-77
2023/01/27 20:07:04;;;;;;;6.32;3.55;;;8.50;55.30;;;;;;6241318;23;20024;-77
2023/01/27 20:09:30;;;;;;;4.70;3.00;;;8.50;55.20;;;;;;6241494;23;20004;-77
2023/01/27 20:11:56;;;;;;;5.38;3.38;;;8.40;55.40;;;;;;6240394;23;20000;-77
2023/01/27 20:14:24;;;;;;;5.53;2.97;;;8.30;55.60;;;;;;6241316;23;20000;-77
2023/01/27 20:16:51;;;;;;;4.60;3.10;;;8.30;55.50;;;;;;6242575;23;20024;-77
2023/01/27 20:19:17;;;;;;;6.10;3.35;;;8.30;55.40;;;;;;6243924;23;20008;-77
2023/01/27 20:21:44;;;;;;;7.20;3.40;;;8.30;55.40;;;;;;6243025;23;20453;-77
2023/01/27 20:24:17;;;;;;;6.72;3.40;;;8.30;55.30;;;;;;6243765;23;20032;-76
2023/01/27 20:26:43;;;;;;;6.00;3.30;;;8.30;55.30;;;;;;6211479;23;20039;-76
2023/01/27 20:29:08;;;;;;;5.18;3.15;;;8.20;55.80;;;;;;6241065;23;20000;-76
2023/01/27 20:31:36;;;;;;;5.30;2.97;;;8.20;55.90;;;;;;6242361;23;20047;-76
2023/01/27 20:34:02;;;;;;;5.47;3.03;;;8.20;56.20;;;;;;6242299;23;20071;-76
2023/01/27 20:36:27;;;;;;;4.57;3.08;;;8.30;56.00;;;;;;6243004;23;20031;-76
2023/01/27 20:38:53;;;;;;;6.70;3.80;;;8.30;56.50;;;;;;6242955;23;20011;-76
2023/01/27 20:41:21;;;;;;;5.78;3.45;;;8.30;56.60;;;;;;6241184;23;20440;-76
2023/01/27 20:43:47;;;;;;;5.38;3.83;;;8.30;56.40;;;;;;6242824;23;20007;-76
2023/01/27 20:46:15;;;;;;;5.00;3.30;;;8.30;56.50;;;;;;6216244;23;20008;-76
2023/01/27 20:48:41;;;;;;;6.82;3.97;;;8.20;56.50;;;;;;6242647;23;20000;-75
2023/01/27 20:51:12;;;;;;;7.50;3.95;;;8.20;56.40;;;;;;6242149;23;20027;-76
2023/01/27 20:53:44;;;;;;;5.10;3.00;;;;;;;;;;6240944;23;20336;-76
2023/01/27 20:56:15;;;;;;;5.50;3.70;;;8.20;56.70;;;;;;6241426;23;20008;-76
2023/01/27 20:58:42;;;;;;;5.85;3.65;;;;;;;;;;6242775;23;20392;-76
2023/01/27 21:01:10;;;;;;;5.35;3.00;;;8.20;57.20;;;;;;6241903;23;20008;-76
2023/01/27 21:03:37;;;;;;;5.05;3.28;;;8.20;56.90;;;;;;6242858;23;20000;-76
2023/01/27 21:06:03;;;;;;;10.63;4.78;;;8.20;57.30;;;;;;6242066;23;20003;-76
2023/01/27 21:08:29;;;;;;;7.22;3.50;;;8.10;57.60;;;;;;6241462;23;20004;-77
2023/01/27 21:10:57;;;;;;;6.53;3.60;;;8.10;57.30;;;;;;6215019;23;20008;-76
2023/01/27 21:13:23;;;;;;;6.20;3.95;;;8.20;57.50;;;;;;6241955;23;20005;-76
2023/01/27 21:15:49;;;;;;;5.05;3.28;;;8.10;57.50;;;;;;6242663;23;20337;-76
2023/01/27 21:18:16;;;;;;;6.80;3.72;;;8.20;57.90;;;;;;6215838;23;20004;-76
2023/01/27 21:20:49;;;;;;;5.38;3.33;;;8.20;58.20;;;;;;6243222;23;20392;-76
2023/01/27 21:23:15;;;;;;;5.72;3.75;;;8.20;58.10;;;;;;6241979;23;20066;-76
2023/01/27 21:25:41;;;;;;;8.23;3.75;;;8.20;58.00;;;;;;6241862;23;20365;-76
2023/01/27 21:28:07;;;;;;;5.57;3.22;;;8.10;58.40;;;;;;6241237;23;20011;-76
2023/01/27 21:30:32;;;;;;;6.88;3.40;;;8.20;58.30;;;;;;6241632;23;20007;-76
2023/01/27 21:32:58;;;;;;;5.45;3.33;;;8.20;58.20;;;;;;6242367;23;20422;-76
2023/01/27 21:35:24;;;;;;;12.48;4.25;;;8.10;57.80;;;;;;6241652;23;20070;-76
2023/01/27 21:37:50;;;;;;;5.30;3.47;;;8.10;58.00;;;;;;6242464;23;20003;-76
2023/01/27 21:40:16;;;;;;;6.72;3.65;;;8.20;58.00;;;;;;6241643;23;20158;-76
2023/01/27 21:45:27;;;;;;;6.20;3.38;;;8.20;58.00;;;;;;6241175;23;20453;-76
2023/01/27 21:47:53;;;;;;;7.07;3.63;;;8.20;58.00;;;;;;6214053;23;20066;-76
2023/01/27 21:50:18;;;;;;;5.75;3.83;;;8.10;58.90;;;;;;6242447;23;20345;-76
2023/01/27 21:52:49;;;;;;;6.90;3.63;;;8.00;58.60;;;;;;6240761;23;20464;-76
2023/01/27 21:55:20;;;;;;;6.70;3.50;;;8.10;58.60;;;;;;6240202;23;20326;-77
2023/01/27 21:57:50;;;;;;;7.30;3.72;;;8.10;58.60;;;;;;6242177;23;20004;-77
2023/01/27 22:00:21;;;;;;;7.13;3.45;;;8.10;59.00;;;;;;6242336;23;20008;-76
2023/01/27 22:02:57;;;;;;;8.07;4.63;;;8.00;58.40;;;;;;6241831;23;20011;-77
2023/01/27 22:05:24;;;;;;;6.82;4.22;;;8.10;58.70;;;;;;6242313;23;20032;-76
2023/01/27 22:07:50;;;;;;;6.45;4.20;;;8.10;59.00;;;;;;6214587;23;20275;-76
2023/01/27 22:10:25;;;;;;;6.28;3.92;;;8.10;59.00;;;;;;6241820;23;20015;-77
2023/01/27 22:12:58;;;;;;;5.88;3.63;;;8.00;58.70;;;;;;6241896;23;20000;-76
2023/01/27 22:15:27;;;;;;;6.97;3.90;;;8.00;59.10;;;;;;6217362;23;20027;-76
2023/01/27 22:17:53;;;;;;;5.68;3.63;;;8.00;59.30;;;;;;6243426;23;20079;-76
2023/01/27 22:20:19;;;;;;;7.75;3.88;;;7.90;59.20;;;;;;6242525;23;20402;-77
2023/01/27 22:22:45;;;;;;;6.75;3.75;;;8.00;59.20;;;;;;6241377;23;20011;-75
2023/01/27 22:25:13;;;;;;;9.07;4.20;;;8.00;59.40;;;;;;6242319;23;20410;-76